WIF7BJ ENTO-ENVA
Flight info
| Callsign | WIF7BJ |
|---|---|
| Flight time | 0h 59m |
| Altitude | 25000 |
| Route | ELVOM DCT LULIL DCT LILBA/N0314F240 DCT GIGNI DCT VEVOD |
| Aircraft | DH8D/M-SDE2E3FGRY/H |
Departure
| Time | 2026-05-07 17:25 |
|---|---|
| Airport | Sandefjord Airport, Torp (ENTO) |
Arrival
| Time | 2026-05-07 18:25 |
|---|---|
| Airport | Trondheim Airport, Værnes (ENVA) |
| Time | Latitude | Longitude | Altitude | Speed | Heading |
|---|---|---|---|---|---|
| 2026-05-07 17:13 | 59.17961 | 10.25427 | 273 ft | 0 kts | 271° |
| 2026-05-07 17:16 | 59.17961 | 10.25440 | 273 ft | 2 kts | 269° |
| 2026-05-07 17:16 | 59.17961 | 10.25469 | 273 ft | 2 kts | 270° |
| 2026-05-07 17:16 | 59.17961 | 10.25495 | 272 ft | 0 kts | 270° |
| 2026-05-07 17:16 | 59.17961 | 10.25496 | 272 ft | 0 kts | 270° |
| 2026-05-07 17:20 | 59.17961 | 10.25491 | 272 ft | 4 kts | 270° |
| 2026-05-07 17:20 | 59.18029 | 10.25524 | 273 ft | 16 kts | 17° |
| 2026-05-07 17:20 | 59.18128 | 10.25595 | 274 ft | 14 kts | 47° |
| 2026-05-07 17:20 | 59.18195 | 10.25735 | 274 ft | 13 kts | 45° |
| 2026-05-07 17:21 | 59.18259 | 10.25875 | 274 ft | 15 kts | 50° |
| 2026-05-07 17:21 | 59.18277 | 10.26078 | 273 ft | 15 kts | 90° |
| 2026-05-07 17:21 | 59.18310 | 10.26240 | 272 ft | 13 kts | 10° |
| 2026-05-07 17:21 | 59.18412 | 10.26243 | 274 ft | 15 kts | 0° |
| 2026-05-07 17:22 | 59.18552 | 10.26241 | 278 ft | 23 kts | 359° |
| 2026-05-07 17:22 | 59.18732 | 10.26237 | 283 ft | 27 kts | 359° |
| 2026-05-07 17:22 | 59.18919 | 10.26234 | 288 ft | 26 kts | 359° |
| 2026-05-07 17:22 | 59.19084 | 10.26226 | 290 ft | 21 kts | 1° |
| 2026-05-07 17:23 | 59.19220 | 10.26226 | 292 ft | 17 kts | 1° |
| 2026-05-07 17:23 | 59.19340 | 10.26222 | 293 ft | 19 kts | 1° |
| 2026-05-07 17:23 | 59.19504 | 10.26219 | 293 ft | 23 kts | 360° |
| 2026-05-07 17:23 | 59.19657 | 10.26215 | 293 ft | 20 kts | 358° |
| 2026-05-07 17:24 | 59.19775 | 10.26133 | 292 ft | 17 kts | 310° |
| 2026-05-07 17:24 | 59.19846 | 10.25949 | 291 ft | 15 kts | 295° |
| 2026-05-07 17:24 | 59.19799 | 10.25833 | 291 ft | 11 kts | 180° |
| 2026-05-07 17:24 | 59.19722 | 10.25838 | 292 ft | 28 kts | 178° |
| 2026-05-07 17:25 | 59.19632 | 10.25840 | 293 ft | 36 kts | 180° |
| 2026-05-07 17:25 | 59.19053 | 10.25854 | 292 ft | 123 kts | 179° |
| 2026-05-07 17:25 | 59.18042 | 10.25852 | 472 ft | 158 kts | 181° |
| 2026-05-07 17:25 | 59.16937 | 10.25793 | 1175 ft | 164 kts | 180° |
| 2026-05-07 17:26 | 59.15710 | 10.25916 | 1643 ft | 184 kts | 176° |
| 2026-05-07 17:26 | 59.14497 | 10.26296 | 2498 ft | 181 kts | 152° |
| 2026-05-07 17:26 | 59.13776 | 10.28194 | 3171 ft | 182 kts | 98° |
| 2026-05-07 17:26 | 59.14107 | 10.30474 | 3884 ft | 183 kts | 54° |
| 2026-05-07 17:27 | 59.14943 | 10.32292 | 4671 ft | 185 kts | 46° |
| 2026-05-07 17:27 | 59.15862 | 10.34055 | 5449 ft | 188 kts | 44° |
| 2026-05-07 17:27 | 59.16822 | 10.35763 | 6211 ft | 191 kts | 41° |
| 2026-05-07 17:27 | 59.17815 | 10.37440 | 6975 ft | 194 kts | 40° |
| 2026-05-07 17:28 | 59.18850 | 10.39125 | 7724 ft | 198 kts | 39° |
| 2026-05-07 17:28 | 59.19923 | 10.40821 | 8487 ft | 202 kts | 39° |
| 2026-05-07 17:28 | 59.21010 | 10.42508 | 9253 ft | 205 kts | 38° |
| 2026-05-07 17:28 | 59.22140 | 10.44233 | 9999 ft | 207 kts | 37° |
| 2026-05-07 17:29 | 59.23291 | 10.45963 | 10552 ft | 211 kts | 36° |
| 2026-05-07 17:29 | 59.24443 | 10.47690 | 11151 ft | 213 kts | 35° |
| 2026-05-07 17:29 | 59.25627 | 10.49455 | 11711 ft | 216 kts | 35° |
| 2026-05-07 17:29 | 59.26812 | 10.51219 | 12266 ft | 218 kts | 34° |
| 2026-05-07 17:30 | 59.28027 | 10.53022 | 12821 ft | 220 kts | 34° |
| 2026-05-07 17:30 | 59.29245 | 10.54830 | 13346 ft | 222 kts | 33° |
| 2026-05-07 17:30 | 59.30470 | 10.56644 | 13847 ft | 225 kts | 33° |
| 2026-05-07 17:30 | 59.31717 | 10.58489 | 14332 ft | 227 kts | 33° |
| 2026-05-07 17:31 | 59.32994 | 10.60377 | 14821 ft | 229 kts | 32° |
| 2026-05-07 17:31 | 59.34261 | 10.62254 | 15267 ft | 232 kts | 32° |
| 2026-05-07 17:31 | 59.35547 | 10.64161 | 15736 ft | 233 kts | 32° |
| 2026-05-07 17:31 | 59.36844 | 10.66085 | 16163 ft | 235 kts | 32° |
| 2026-05-07 17:32 | 59.38158 | 10.68037 | 16581 ft | 237 kts | 32° |
| 2026-05-07 17:32 | 59.39478 | 10.70000 | 16991 ft | 239 kts | 32° |
| 2026-05-07 17:32 | 59.40796 | 10.71962 | 17398 ft | 241 kts | 32° |
| 2026-05-07 17:32 | 59.42122 | 10.73937 | 17767 ft | 242 kts | 32° |
| 2026-05-07 17:33 | 59.43478 | 10.75960 | 18128 ft | 245 kts | 31° |
| 2026-05-07 17:33 | 59.44834 | 10.77986 | 18498 ft | 246 kts | 31° |
| 2026-05-07 17:33 | 59.46197 | 10.80024 | 18889 ft | 246 kts | 31° |
| 2026-05-07 17:33 | 59.47550 | 10.82049 | 19225 ft | 248 kts | 31° |
| 2026-05-07 17:34 | 59.48927 | 10.84111 | 19552 ft | 250 kts | 31° |
| 2026-05-07 17:34 | 59.50307 | 10.86181 | 19906 ft | 251 kts | 31° |
| 2026-05-07 17:34 | 59.51707 | 10.88283 | 20207 ft | 253 kts | 30° |
| 2026-05-07 17:34 | 59.53098 | 10.90374 | 20527 ft | 254 kts | 30° |
| 2026-05-07 17:35 | 59.54517 | 10.92508 | 20826 ft | 256 kts | 30° |
| 2026-05-07 17:35 | 59.55934 | 10.94643 | 21098 ft | 258 kts | 30° |
| 2026-05-07 17:35 | 59.57359 | 10.96793 | 21409 ft | 258 kts | 30° |
| 2026-05-07 17:35 | 59.58784 | 10.98945 | 21647 ft | 261 kts | 30° |
| 2026-05-07 17:36 | 59.60229 | 11.01128 | 21898 ft | 262 kts | 30° |
| 2026-05-07 17:36 | 59.61672 | 11.03313 | 22178 ft | 262 kts | 30° |
| 2026-05-07 17:36 | 59.63110 | 11.05492 | 22415 ft | 263 kts | 30° |
| 2026-05-07 17:36 | 59.64560 | 11.07692 | 22655 ft | 264 kts | 29° |
| 2026-05-07 17:37 | 59.66034 | 11.09929 | 22882 ft | 265 kts | 30° |
| 2026-05-07 17:37 | 59.67501 | 11.12088 | 23095 ft | 263 kts | 23° |
| 2026-05-07 17:37 | 59.69146 | 11.13460 | 23271 ft | 251 kts | 5° |
| 2026-05-07 17:37 | 59.70847 | 11.14010 | 23462 ft | 246 kts | 356° |
| 2026-05-07 17:38 | 59.72546 | 11.14319 | 23679 ft | 245 kts | 355° |
| 2026-05-07 17:38 | 59.74237 | 11.14599 | 23872 ft | 246 kts | 355° |
| 2026-05-07 17:38 | 59.75949 | 11.14868 | 24039 ft | 247 kts | 355° |
| 2026-05-07 17:38 | 59.77669 | 11.15131 | 24241 ft | 247 kts | 354° |
| 2026-05-07 17:39 | 59.79387 | 11.15389 | 24425 ft | 248 kts | 354° |
| 2026-05-07 17:39 | 59.81115 | 11.15643 | 24598 ft | 248 kts | 354° |
| 2026-05-07 17:39 | 59.82829 | 11.15895 | 24747 ft | 250 kts | 354° |
| 2026-05-07 17:39 | 59.84567 | 11.16143 | 24918 ft | 249 kts | 354° |
| 2026-05-07 17:40 | 59.86300 | 11.16390 | 25029 ft | 252 kts | 354° |
| 2026-05-07 17:40 | 59.88054 | 11.16637 | 25061 ft | 257 kts | 354° |
| 2026-05-07 17:40 | 59.89856 | 11.16882 | 25060 ft | 264 kts | 354° |
| 2026-05-07 17:40 | 59.91718 | 11.17142 | 25064 ft | 270 kts | 354° |
| 2026-05-07 17:41 | 59.93603 | 11.17406 | 25066 ft | 276 kts | 355° |
| 2026-05-07 17:41 | 59.95523 | 11.17676 | 25066 ft | 281 kts | 355° |
| 2026-05-07 17:41 | 59.97513 | 11.17957 | 25065 ft | 287 kts | 355° |
| 2026-05-07 17:41 | 59.99494 | 11.18237 | 25071 ft | 292 kts | 355° |
| 2026-05-07 17:42 | 60.01533 | 11.18520 | 25071 ft | 296 kts | 354° |
| 2026-05-07 17:42 | 60.03622 | 11.18745 | 25079 ft | 300 kts | 354° |
| 2026-05-07 17:42 | 60.05700 | 11.18948 | 25076 ft | 303 kts | 354° |
| 2026-05-07 17:42 | 60.07827 | 11.19155 | 25077 ft | 306 kts | 354° |
| 2026-05-07 17:43 | 60.09947 | 11.19361 | 25074 ft | 309 kts | 354° |
| 2026-05-07 17:43 | 60.12106 | 11.19570 | 25078 ft | 311 kts | 354° |
| 2026-05-07 17:43 | 60.14269 | 11.19786 | 25076 ft | 312 kts | 354° |
| 2026-05-07 17:43 | 60.16421 | 11.20001 | 25080 ft | 314 kts | 354° |
| 2026-05-07 17:44 | 60.18631 | 11.20219 | 25084 ft | 315 kts | 354° |
| 2026-05-07 17:44 | 60.20810 | 11.20433 | 25092 ft | 318 kts | 354° |
| 2026-05-07 17:44 | 60.23036 | 11.20650 | 25090 ft | 322 kts | 354° |
| 2026-05-07 17:44 | 60.25278 | 11.20868 | 25081 ft | 325 kts | 354° |
| 2026-05-07 17:45 | 60.27556 | 11.21090 | 25078 ft | 327 kts | 354° |
| 2026-05-07 17:45 | 60.29826 | 11.21312 | 25078 ft | 329 kts | 354° |
| 2026-05-07 17:45 | 60.32109 | 11.21535 | 25073 ft | 331 kts | 354° |
| 2026-05-07 17:45 | 60.34412 | 11.21760 | 25072 ft | 332 kts | 354° |
| 2026-05-07 17:46 | 60.36736 | 11.21987 | 25077 ft | 333 kts | 354° |
| 2026-05-07 17:46 | 60.39029 | 11.22212 | 25078 ft | 334 kts | 354° |
| 2026-05-07 17:46 | 60.41362 | 11.22440 | 25080 ft | 335 kts | 354° |
| 2026-05-07 17:46 | 60.43677 | 11.22666 | 25073 ft | 335 kts | 354° |
| 2026-05-07 17:47 | 60.45992 | 11.22893 | 25062 ft | 336 kts | 354° |
| 2026-05-07 17:47 | 60.48336 | 11.23124 | 25066 ft | 334 kts | 354° |
| 2026-05-07 17:47 | 60.50646 | 11.23352 | 25069 ft | 332 kts | 354° |
| 2026-05-07 17:47 | 60.52919 | 11.23576 | 25070 ft | 330 kts | 354° |
| 2026-05-07 17:48 | 60.55325 | 11.23814 | 25066 ft | 326 kts | 354° |
| 2026-05-07 17:48 | 60.57720 | 11.24051 | 25073 ft | 324 kts | 354° |
| 2026-05-07 17:48 | 60.60182 | 11.24295 | 25074 ft | 321 kts | 353° |
| 2026-05-07 17:48 | 60.62676 | 11.24539 | 25081 ft | 319 kts | 353° |
| 2026-05-07 17:49 | 60.65135 | 11.24781 | 25075 ft | 317 kts | 354° |
| 2026-05-07 17:49 | 60.67567 | 11.25021 | 25085 ft | 316 kts | 353° |
| 2026-05-07 17:49 | 60.69957 | 11.25256 | 25085 ft | 315 kts | 353° |
| 2026-05-07 17:49 | 60.72343 | 11.25491 | 25084 ft | 315 kts | 353° |
| 2026-05-07 17:50 | 60.74715 | 11.25725 | 25085 ft | 315 kts | 353° |
| 2026-05-07 17:50 | 60.77107 | 11.25963 | 25081 ft | 313 kts | 353° |
| 2026-05-07 17:50 | 60.79520 | 11.26207 | 25078 ft | 313 kts | 353° |
| 2026-05-07 17:50 | 60.81920 | 11.26450 | 25080 ft | 312 kts | 353° |
| 2026-05-07 17:51 | 60.84228 | 11.26682 | 25084 ft | 312 kts | 353° |
| 2026-05-07 17:51 | 60.86386 | 11.26897 | 25083 ft | 314 kts | 353° |
| 2026-05-07 17:51 | 60.88589 | 11.27118 | 25075 ft | 315 kts | 353° |
| 2026-05-07 17:51 | 60.90755 | 11.27334 | 25069 ft | 315 kts | 353° |
| 2026-05-07 17:52 | 60.92971 | 11.27557 | 25063 ft | 316 kts | 353° |
| 2026-05-07 17:52 | 60.95136 | 11.27775 | 25056 ft | 317 kts | 353° |
| 2026-05-07 17:52 | 60.97336 | 11.27996 | 25064 ft | 317 kts | 353° |
| 2026-05-07 17:52 | 60.99527 | 11.28213 | 25060 ft | 317 kts | 353° |
| 2026-05-07 17:53 | 61.01733 | 11.28433 | 25060 ft | 318 kts | 353° |
| 2026-05-07 17:53 | 61.03947 | 11.28655 | 25063 ft | 318 kts | 353° |
| 2026-05-07 17:53 | 61.06136 | 11.28875 | 25056 ft | 318 kts | 353° |
| 2026-05-07 17:53 | 61.08321 | 11.29095 | 25052 ft | 318 kts | 353° |
| 2026-05-07 17:54 | 61.10542 | 11.29319 | 25062 ft | 318 kts | 353° |
| 2026-05-07 17:54 | 61.12757 | 11.29543 | 25061 ft | 318 kts | 353° |
| 2026-05-07 17:54 | 61.14954 | 11.29766 | 25059 ft | 318 kts | 353° |
| 2026-05-07 17:54 | 61.17184 | 11.29994 | 25072 ft | 317 kts | 353° |
| 2026-05-07 17:55 | 61.19387 | 11.30219 | 25073 ft | 317 kts | 353° |
| 2026-05-07 17:55 | 61.21594 | 11.30445 | 25068 ft | 317 kts | 353° |
| 2026-05-07 17:55 | 61.23790 | 11.30669 | 25074 ft | 317 kts | 353° |
| 2026-05-07 17:55 | 61.25969 | 11.30892 | 25079 ft | 317 kts | 353° |
| 2026-05-07 17:56 | 61.28187 | 11.31120 | 25083 ft | 317 kts | 353° |
| 2026-05-07 17:56 | 61.30384 | 11.31345 | 25086 ft | 317 kts | 353° |
| 2026-05-07 17:56 | 61.32584 | 11.31571 | 25082 ft | 318 kts | 353° |
| 2026-05-07 17:56 | 61.34773 | 11.31796 | 25078 ft | 318 kts | 353° |
| 2026-05-07 17:57 | 61.36957 | 11.32022 | 25081 ft | 318 kts | 353° |
| 2026-05-07 17:57 | 61.38446 | 11.32177 | 25083 ft | 318 kts | 353° |
| 2026-05-07 17:57 | 61.41379 | 11.32481 | 25085 ft | 318 kts | 353° |
| 2026-05-07 17:57 | 61.43572 | 11.32708 | 25083 ft | 318 kts | 353° |
| 2026-05-07 17:58 | 61.45773 | 11.32936 | 25078 ft | 318 kts | 353° |
| 2026-05-07 17:58 | 61.47964 | 11.33163 | 25081 ft | 318 kts | 353° |
| 2026-05-07 17:58 | 61.50172 | 11.33394 | 25087 ft | 318 kts | 353° |
| 2026-05-07 17:58 | 61.52396 | 11.33626 | 25077 ft | 318 kts | 353° |
| 2026-05-07 17:59 | 61.54606 | 11.33858 | 25078 ft | 318 kts | 353° |
| 2026-05-07 17:59 | 61.56815 | 11.34089 | 25081 ft | 318 kts | 353° |
| 2026-05-07 17:59 | 61.58991 | 11.34316 | 25072 ft | 318 kts | 353° |
| 2026-05-07 17:59 | 61.61200 | 11.34547 | 25064 ft | 318 kts | 353° |
| 2026-05-07 18:00 | 61.63406 | 11.34779 | 25061 ft | 318 kts | 353° |
| 2026-05-07 18:00 | 61.65623 | 11.35012 | 25064 ft | 318 kts | 353° |
| 2026-05-07 18:00 | 61.67823 | 11.35243 | 25067 ft | 318 kts | 353° |
| 2026-05-07 18:00 | 61.70010 | 11.35483 | 25059 ft | 318 kts | 353° |
| 2026-05-07 18:01 | 61.72228 | 11.35708 | 25056 ft | 317 kts | 353° |
| 2026-05-07 18:01 | 61.74429 | 11.35944 | 25057 ft | 317 kts | 353° |
| 2026-05-07 18:01 | 61.76617 | 11.36169 | 25059 ft | 317 kts | 353° |
| 2026-05-07 18:01 | 61.78829 | 11.36411 | 25050 ft | 318 kts | 353° |
| 2026-05-07 18:02 | 61.83222 | 11.36877 | 25059 ft | 317 kts | 353° |
| 2026-05-07 18:02 | 61.85401 | 11.37073 | 25054 ft | 315 kts | 351° |
| 2026-05-07 18:02 | 61.87577 | 11.36964 | 25056 ft | 312 kts | 347° |
| 2026-05-07 18:03 | 61.89750 | 11.36742 | 25059 ft | 314 kts | 347° |
| 2026-05-07 18:03 | 61.91915 | 11.36523 | 25061 ft | 316 kts | 347° |
| 2026-05-07 18:03 | 61.94125 | 11.36285 | 25061 ft | 317 kts | 347° |
| 2026-05-07 18:03 | 61.96331 | 11.36054 | 25060 ft | 318 kts | 347° |
| 2026-05-07 18:04 | 61.98523 | 11.35825 | 25060 ft | 319 kts | 347° |
| 2026-05-07 18:04 | 62.00721 | 11.35596 | 25057 ft | 320 kts | 347° |
| 2026-05-07 18:04 | 62.02943 | 11.35364 | 25056 ft | 320 kts | 347° |
| 2026-05-07 18:04 | 62.05183 | 11.35128 | 25057 ft | 321 kts | 347° |
| 2026-05-07 18:05 | 62.07399 | 11.34898 | 25047 ft | 321 kts | 347° |
| 2026-05-07 18:05 | 62.09643 | 11.34666 | 25049 ft | 321 kts | 348° |
| 2026-05-07 18:05 | 62.11868 | 11.34436 | 25043 ft | 319 kts | 347° |
| 2026-05-07 18:05 | 62.14099 | 11.34201 | 25037 ft | 319 kts | 347° |
| 2026-05-07 18:06 | 62.16292 | 11.33969 | 25038 ft | 319 kts | 347° |
| 2026-05-07 18:06 | 62.18513 | 11.33730 | 24879 ft | 319 kts | 347° |
| 2026-05-07 18:06 | 62.20734 | 11.33491 | 24189 ft | 312 kts | 347° |
| 2026-05-07 18:06 | 62.22829 | 11.33272 | 23789 ft | 300 kts | 347° |
| 2026-05-07 18:07 | 62.24862 | 11.33063 | 23419 ft | 287 kts | 347° |
| 2026-05-07 18:07 | 62.26833 | 11.32854 | 23094 ft | 288 kts | 347° |
| 2026-05-07 18:07 | 62.28894 | 11.32618 | 22748 ft | 302 kts | 348° |
| 2026-05-07 18:07 | 62.31000 | 11.32382 | 22380 ft | 314 kts | 349° |
| 2026-05-07 18:08 | 62.33228 | 11.32142 | 21993 ft | 322 kts | 349° |
| 2026-05-07 18:08 | 62.35441 | 11.31914 | 21623 ft | 324 kts | 349° |
| 2026-05-07 18:08 | 62.37718 | 11.31677 | 21232 ft | 327 kts | 350° |
| 2026-05-07 18:08 | 62.39999 | 11.31439 | 20845 ft | 328 kts | 350° |
| 2026-05-07 18:09 | 62.42349 | 11.31193 | 20433 ft | 329 kts | 350° |
| 2026-05-07 18:09 | 62.44656 | 11.30951 | 20036 ft | 330 kts | 351° |
| 2026-05-07 18:09 | 62.46944 | 11.30708 | 19652 ft | 331 kts | 351° |
| 2026-05-07 18:09 | 62.49220 | 11.30466 | 19265 ft | 333 kts | 351° |
| 2026-05-07 18:10 | 62.51527 | 11.30221 | 18867 ft | 334 kts | 352° |
| 2026-05-07 18:10 | 62.53854 | 11.29974 | 18466 ft | 333 kts | 352° |
| 2026-05-07 18:10 | 62.56147 | 11.29729 | 18067 ft | 333 kts | 352° |
| 2026-05-07 18:10 | 62.58461 | 11.29479 | 17663 ft | 333 kts | 352° |
| 2026-05-07 18:11 | 62.60752 | 11.29232 | 17271 ft | 333 kts | 352° |
| 2026-05-07 18:11 | 62.62295 | 11.29066 | 17002 ft | 333 kts | 352° |
| 2026-05-07 18:11 | 62.65363 | 11.28737 | 16465 ft | 333 kts | 352° |
| 2026-05-07 18:11 | 62.67692 | 11.28482 | 16063 ft | 332 kts | 352° |
| 2026-05-07 18:12 | 62.69989 | 11.28228 | 15675 ft | 332 kts | 352° |
| 2026-05-07 18:12 | 62.72261 | 11.27975 | 15291 ft | 332 kts | 353° |
| 2026-05-07 18:12 | 62.74589 | 11.27716 | 14876 ft | 332 kts | 353° |
| 2026-05-07 18:12 | 62.76865 | 11.27465 | 14434 ft | 324 kts | 353° |
| 2026-05-07 18:13 | 62.79061 | 11.27216 | 14052 ft | 307 kts | 353° |
| 2026-05-07 18:13 | 62.81134 | 11.26982 | 13696 ft | 293 kts | 353° |
| 2026-05-07 18:13 | 62.83108 | 11.26759 | 13353 ft | 282 kts | 353° |
| 2026-05-07 18:13 | 62.85067 | 11.26536 | 13016 ft | 277 kts | 353° |
| 2026-05-07 18:14 | 62.86969 | 11.26321 | 12689 ft | 278 kts | 353° |
| 2026-05-07 18:14 | 62.88915 | 11.26103 | 12355 ft | 283 kts | 354° |
| 2026-05-07 18:14 | 62.90897 | 11.25882 | 12010 ft | 287 kts | 354° |
| 2026-05-07 18:14 | 62.92879 | 11.25662 | 11662 ft | 290 kts | 354° |
| 2026-05-07 18:15 | 62.94906 | 11.25438 | 11304 ft | 292 kts | 354° |
| 2026-05-07 18:15 | 62.96923 | 11.25215 | 10952 ft | 295 kts | 355° |
| 2026-05-07 18:15 | 62.98963 | 11.24987 | 10595 ft | 291 kts | 355° |
| 2026-05-07 18:15 | 63.00954 | 11.24762 | 10258 ft | 288 kts | 355° |
| 2026-05-07 18:16 | 63.02952 | 11.24538 | 9916 ft | 288 kts | 356° |
| 2026-05-07 18:16 | 63.04934 | 11.24319 | 9583 ft | 291 kts | 356° |
| 2026-05-07 18:16 | 63.06976 | 11.24094 | 9237 ft | 293 kts | 356° |
| 2026-05-07 18:16 | 63.08990 | 11.23870 | 8893 ft | 294 kts | 356° |
| 2026-05-07 18:17 | 63.11012 | 11.23640 | 8528 ft | 281 kts | 355° |
| 2026-05-07 18:17 | 63.12928 | 11.23421 | 8212 ft | 278 kts | 355° |
| 2026-05-07 18:17 | 63.14824 | 11.23204 | 7877 ft | 265 kts | 355° |
| 2026-05-07 18:17 | 63.16618 | 11.22998 | 7571 ft | 255 kts | 355° |
| 2026-05-07 18:18 | 63.18342 | 11.22799 | 7212 ft | 246 kts | 355° |
| 2026-05-07 18:18 | 63.20004 | 11.22607 | 6880 ft | 237 kts | 355° |
| 2026-05-07 18:18 | 63.21618 | 11.22421 | 6582 ft | 228 kts | 355° |
| 2026-05-07 18:18 | 63.23174 | 11.22242 | 6309 ft | 218 kts | 355° |
| 2026-05-07 18:19 | 63.24704 | 11.22071 | 6061 ft | 227 kts | 355° |
| 2026-05-07 18:19 | 63.26285 | 11.21904 | 5789 ft | 235 kts | 355° |
| 2026-05-07 18:19 | 63.27956 | 11.21720 | 5510 ft | 242 kts | 356° |
| 2026-05-07 18:19 | 63.29646 | 11.21532 | 5224 ft | 248 kts | 356° |
| 2026-05-07 18:20 | 63.31384 | 11.21336 | 4919 ft | 252 kts | 356° |
| 2026-05-07 18:20 | 63.33133 | 11.21260 | 4629 ft | 254 kts | 360° |
| 2026-05-07 18:20 | 63.34845 | 11.21275 | 4504 ft | 235 kts | 360° |
| 2026-05-07 18:20 | 63.36400 | 11.21284 | 4327 ft | 223 kts | 0° |
| 2026-05-07 18:21 | 63.37994 | 11.21304 | 3890 ft | 230 kts | 0° |
| 2026-05-07 18:21 | 63.39563 | 11.21313 | 3550 ft | 222 kts | 0° |
| 2026-05-07 18:21 | 63.41072 | 11.21240 | 3215 ft | 215 kts | 353° |
| 2026-05-07 18:21 | 63.42478 | 11.20417 | 2897 ft | 207 kts | 336° |
| 2026-05-07 18:22 | 63.43640 | 11.18889 | 2616 ft | 185 kts | 322° |
| 2026-05-07 18:22 | 63.44252 | 11.17651 | 2413 ft | 174 kts | 314° |
| 2026-05-07 18:22 | 63.45231 | 11.14526 | 2091 ft | 197 kts | 298° |
| 2026-05-07 18:22 | 63.45672 | 11.11587 | 1760 ft | 199 kts | 282° |
| 2026-05-07 18:23 | 63.45723 | 11.08667 | 1592 ft | 180 kts | 268° |
| 2026-05-07 18:23 | 63.45626 | 11.05916 | 1391 ft | 174 kts | 268° |
| 2026-05-07 18:23 | 63.45653 | 11.03286 | 1221 ft | 164 kts | 275° |
| 2026-05-07 18:23 | 63.45720 | 11.00800 | 992 ft | 157 kts | 272° |
| 2026-05-07 18:24 | 63.45733 | 10.98408 | 668 ft | 151 kts | 272° |
| 2026-05-07 18:24 | 63.45750 | 10.96108 | 378 ft | 145 kts | 271° |
| 2026-05-07 18:24 | 63.45754 | 10.93930 | 89 ft | 136 kts | 270° |
| 2026-05-07 18:24 | 63.45760 | 10.92062 | 38 ft | 96 kts | 270° |
| 2026-05-07 18:25 | 63.45761 | 10.91066 | 29 ft | 48 kts | 270° |
| 2026-05-07 18:25 | 63.45737 | 10.90564 | 23 ft | 25 kts | 250° |
| 2026-05-07 18:25 | 63.45633 | 10.90375 | 21 ft | 17 kts | 166° |
| 2026-05-07 18:25 | 63.45599 | 10.90582 | 23 ft | 13 kts | 90° |
| 2026-05-07 18:26 | 63.45599 | 10.90771 | 26 ft | 12 kts | 90° |
| 2026-05-07 18:26 | 63.45597 | 10.90958 | 29 ft | 11 kts | 90° |
| 2026-05-07 18:26 | 63.45594 | 10.91121 | 31 ft | 9 kts | 116° |
| 2026-05-07 18:26 | 63.45527 | 10.91142 | 32 ft | 10 kts | 180° |
| 2026-05-07 18:27 | 63.45452 | 10.91142 | 32 ft | 11 kts | 183° |
| 2026-05-07 18:27 | 63.45404 | 10.91140 | 32 ft | 6 kts | 173° |
| 2026-05-07 18:27 | 63.45377 | 10.91204 | 32 ft | 5 kts | 91° |
| 2026-05-07 18:27 | 63.45377 | 10.91263 | 33 ft | 0 kts | 90° |